ESGR/KVB METAR and TAF weather

Enter ICAO airport designator
Station Type Date Time Source
ESGR METAR 2021/07/30 06:20 UTC NOAA

ESGR 300620Z AUTO 25005KT 9999 FEW011/// OVC120/// 14/12 Q0993


Station Type Date Time Source
ESGR Decoded METAR 2021/07/30 06:20 UTC NOAA

Skovde Flygplats, Sweden (ESGR) 58-27N 013-58E 105M
Jul 30, 2021 - 02:20 AM EDT / 2021.07.30 0620 UTC
Wind: from the WSW (250 degrees) at 6 MPH (5 KT):0
Visibility: greater than 7 mile(s):0
Sky conditions: overcast
Temperature: 57 F (14 C)
Dew Point: 53 F (12 C)
Relative Humidity: 87%
Pressure (altimeter): 29.32 in. Hg (0993 hPa)
ob: ESGR 300620Z AUTO 25005KT 9999 FEW011/// OVC120/// 14/12 Q0993
cycle: 6

Station Type Date Time Source
ESGR TAF 2009/06/28 04:50 UTC NOAA

METAR ESGR 280450Z AUTO VRB02KT 9999NDV NCD 17/12 Q1020

Example: see airport list